Portada
METAR-TAF:

METAR-TAF

Aeroports :

Port-of-Spain, Illa de Trinitat, Trinitat i Tobago

latitud: 10-37N, longitud: 061-21W, altitud: 12 m

Observació

L'informe es va fer fa 34 minuts, a les 06:00 UTC
Vent calma
Temperatura 24°C
Humitat 89%
Pressió 1013 hPa
Visibilitat 10 km o més
Escasses núvols a una alçada de 1600 ft

METAR: TTPP 270600Z 00000KT 9999 FEW016 24/22 Q1013 NOSIG

Hora: 02:34 (06:34 UTC)

Pronòstic

L'informe es va fer fa 2 hores i 34 minuts, a les 04:00 UTC
Pronòstic vàlid del 27 a les 06 UTC al 28 a les 06 UTC
Vent 5 kt del Est
Visibilitat 10 km o més
Escasses núvols a una alçada de 1600 ft
Evolucionant progressivament
l' 27 a les 12 UTC al 27 a les 14 UTC
Vent 15 kt del Est/Sud-Est
Núvols disperses a una alçada de 2000 ft
Evolucionant progressivament
l' 27 a les 23 UTC al 28 a les 01 UTC
Vent 5 kt del Est
Escasses núvols a una alçada de 1600 ft

TAF: TTPP 270400Z 2706/2806 10005KT 9999 FEW016 BECMG 2712/2714 11015KT SCT020 BECMG 2723/2801 09005KT FEW016

Observacions i pronòstics meteorològics de més de 4000 aeroports (METAR i TAF).

Les estacions disponibles són els punts grocs i vermells al mapa.

Posi el ratolí al punt desitjat per veure el nom de l'estació.

Feu clic per veure les observacions i els pronòstics meteorològics.

Per canviar el mapa: feu clic els botons verds amb una creu de color negre per apropar; al botó verd amb un guió per allunyar la imatge; o en les fletxes verdes per a mapes adjacents.


METAR-TAF: